createdAt,value
2022-08-09T00:00:21.542Z,65.30
2022-08-09T00:02:51.518Z,65.40
2022-08-09T00:06:17.654Z,65.70
2022-08-09T00:08:11.454Z,65.80
2022-08-09T00:10:58.296Z,66.30
2022-08-09T00:13:25.393Z,66.40
2022-08-09T00:16:00.007Z,66.80
2022-08-09T00:18:35.717Z,67.00
2022-08-09T00:21:07.938Z,67.40
2022-08-09T00:23:55.161Z,67.70
2022-08-09T00:26:29.809Z,67.90
2022-08-09T00:29:00.795Z,68.00
2022-08-09T00:31:58.820Z,68.40
2022-08-09T00:34:15.049Z,68.50
2022-08-09T00:36:47.345Z,68.90
2022-08-09T00:40:01.829Z,69.10
2022-08-09T00:44:19.800Z,69.20
2022-08-09T00:44:47.987Z,70.00
2022-08-09T00:47:15.830Z,69.70
2022-08-09T00:49:43.868Z,70.00
2022-08-09T00:52:30.175Z,70.10
2022-08-09T00:55:01.679Z,70.20
2022-08-09T00:57:34.887Z,70.60
2022-08-09T01:00:21.641Z,70.80
2022-08-09T01:03:11.711Z,71.20
2022-08-09T01:05:55.284Z,71.70
2022-08-09T01:08:49.539Z,72.00
2022-08-09T01:11:55.440Z,72.40
2022-08-09T01:14:52.710Z,73.30
2022-08-09T01:17:30.513Z,73.70
2022-08-09T01:20:34.988Z,73.70
2022-08-09T01:24:02.716Z,74.80
2022-08-09T01:26:21.723Z,75.00
2022-08-09T01:28:52.339Z,75.40
2022-08-09T01:32:28.006Z,75.70
2022-08-09T01:34:13.001Z,76.50
2022-08-09T01:36:45.217Z,77.10
2022-08-09T01:39:15.055Z,77.90
2022-08-09T01:41:53.552Z,78.40
2022-08-09T01:44:29.195Z,79.40
2022-08-09T01:46:59.022Z,80.10
2022-08-09T01:49:31.957Z,81.00
2022-08-09T01:52:10.408Z,81.80
2022-08-09T01:54:41.081Z,82.20
2022-08-09T01:57:25.096Z,83.20
2022-08-09T02:00:00.248Z,84.60
2022-08-09T02:02:49.584Z,84.80
2022-08-09T02:05:21.336Z,86.30
2022-08-09T02:08:39.947Z,86.60
2022-08-09T02:10:57.696Z,87.70
2022-08-09T02:13:40.289Z,88.80
2022-08-09T02:16:12.374Z,89.70
2022-08-09T02:18:42.898Z,90.20
2022-08-09T02:21:21.953Z,90.50
2022-08-09T02:23:58.269Z,91.60
2022-08-09T02:26:31.584Z,91.40
2022-08-09T02:29:06.697Z,91.40
2022-08-09T02:31:37.881Z,91.50
2022-08-09T02:34:13.675Z,91.70
2022-08-09T02:36:55.369Z,92.00
2022-08-09T02:39:33.518Z,92.30
2022-08-09T02:42:10.571Z,92.30
2022-08-09T02:44:50.455Z,92.50
2022-08-09T02:47:21.694Z,92.60
2022-08-09T02:50:24.293Z,92.70
2022-08-09T02:52:58.147Z,92.90
2022-08-09T02:55:46.414Z,93.00
2022-08-09T02:58:35.570Z,93.10
2022-08-09T03:01:07.746Z,93.20
2022-08-09T03:04:18.397Z,93.30
2022-08-09T03:06:27.749Z,93.50
2022-08-09T03:08:55.949Z,93.70
2022-08-09T03:11:29.560Z,93.70
2022-08-09T03:14:12.841Z,94.30
2022-08-09T03:16:45.148Z,94.10
2022-08-09T03:19:52.316Z,94.20
2022-08-09T03:22:12.395Z,94.50
2022-08-09T03:25:20.898Z,94.70
2022-08-09T03:27:44.715Z,94.90
2022-08-09T03:30:13.820Z,95.10
2022-08-09T03:32:43.142Z,95.30
2022-08-09T03:35:24.310Z,95.40
2022-08-09T03:37:56.051Z,95.40
2022-08-09T03:40:24.585Z,95.50
2022-08-09T03:42:51.955Z,95.50
2022-08-09T03:46:04.683Z,95.60
2022-08-09T03:48:05.983Z,95.70
2022-08-09T03:50:36.350Z,95.70
2022-08-09T03:53:06.223Z,95.80
2022-08-09T03:55:41.006Z,96.00
2022-08-09T03:58:16.386Z,96.20
2022-08-09T04:00:49.645Z,96.30
2022-08-09T04:03:24.927Z,96.50
2022-08-09T04:06:04.926Z,96.60
2022-08-09T04:08:33.156Z,96.60
2022-08-09T04:11:01.770Z,96.80
2022-08-09T04:14:37.724Z,96.90
2022-08-09T04:16:20.171Z,97.00
2022-08-09T04:18:50.952Z,97.10
2022-08-09T04:21:18.545Z,97.20
2022-08-09T04:23:54.431Z,97.20
2022-08-09T04:26:35.254Z,97.30
2022-08-09T04:29:10.883Z,97.40
2022-08-09T04:31:46.764Z,97.50
2022-08-09T04:34:18.863Z,97.50
2022-08-09T04:36:57.495Z,97.70
2022-08-09T04:39:24.506Z,97.50
2022-08-09T04:41:51.596Z,97.60
2022-08-09T04:44:18.721Z,97.60
2022-08-09T04:46:59.606Z,97.70
2022-08-09T04:49:52.235Z,97.90
2022-08-09T04:52:32.016Z,98.10
2022-08-09T04:55:01.388Z,98.10
2022-08-09T04:57:58.516Z,98.20
2022-08-09T05:00:16.635Z,98.00
2022-08-09T05:02:44.349Z,98.00
2022-08-09T05:05:32.517Z,97.80
2022-08-09T05:08:05.830Z,97.80
2022-08-09T05:10:34.397Z,97.80
2022-08-09T05:13:03.989Z,97.80
2022-08-09T05:15:42.662Z,97.80
2022-08-09T05:18:39.659Z,97.60
2022-08-09T05:21:02.701Z,97.40
2022-08-09T05:23:54.846Z,97.10
2022-08-09T05:26:37.145Z,96.90
2022-08-09T05:29:21.692Z,96.80
2022-08-09T05:31:56.879Z,96.70
2022-08-09T05:34:32.856Z,96.60
2022-08-09T05:37:06.841Z,96.50
2022-08-09T05:39:43.716Z,96.50
2022-08-09T05:42:17.965Z,96.20
2022-08-09T05:44:50.849Z,96.00
2022-08-09T05:47:22.752Z,95.70
2022-08-09T05:50:30.248Z,95.40
2022-08-09T05:52:39.252Z,95.10
2022-08-09T05:55:08.908Z,94.80
2022-08-09T05:57:51.191Z,94.50
2022-08-09T06:00:32.976Z,94.30
2022-08-09T06:03:02.399Z,94.10
2022-08-09T06:05:57.299Z,93.80
2022-08-09T06:08:24.187Z,93.50
2022-08-09T06:10:55.871Z,93.20
2022-08-09T06:13:23.560Z,93.00
2022-08-09T06:15:52.382Z,92.70
2022-08-09T06:18:24.243Z,92.50
2022-08-09T06:20:54.820Z,92.20
2022-08-09T06:23:57.167Z,91.90
2022-08-09T06:26:13.203Z,91.40
2022-08-09T06:28:43.368Z,91.20
2022-08-09T06:31:10.736Z,90.90
2022-08-09T06:33:40.816Z,90.80
2022-08-09T06:36:13.652Z,90.50
2022-08-09T06:38:47.179Z,90.10
2022-08-09T06:41:19.126Z,89.90
2022-08-09T06:43:48.107Z,89.20
2022-08-09T06:46:39.722Z,88.00
2022-08-09T06:49:03.001Z,87.30
2022-08-09T06:51:30.924Z,86.00
2022-08-09T06:54:00.865Z,84.70
2022-08-09T06:56:30.996Z,84.20
2022-08-09T07:00:50.244Z,83.10
2022-08-09T07:01:54.274Z,82.40
2022-08-09T07:04:30.841Z,81.10
2022-08-09T07:06:59.788Z,80.10
2022-08-09T07:09:54.931Z,79.60
2022-08-09T07:12:18.086Z,78.10
2022-08-09T07:14:51.402Z,77.10
2022-08-09T07:17:21.638Z,76.30
2022-08-09T07:19:50.939Z,76.30
2022-08-09T07:22:34.334Z,75.10
2022-08-09T07:25:05.308Z,74.90
2022-08-09T07:27:42.683Z,73.30
2022-08-09T07:30:20.072Z,72.50
2022-08-09T07:32:48.855Z,71.30
2022-08-09T07:35:19.122Z,70.10
2022-08-09T07:37:46.287Z,69.70
2022-08-09T07:40:18.833Z,69.30
2022-08-09T07:42:54.131Z,68.30
2022-08-09T07:45:38.240Z,67.40
2022-08-09T07:48:25.718Z,66.90
2022-08-09T07:51:09.490Z,65.80
2022-08-09T07:54:05.752Z,63.70
2022-08-09T07:56:31.227Z,62.80
2022-08-09T07:58:59.516Z,63.20
2022-08-09T08:01:34.294Z,62.20
2022-08-09T08:04:02.627Z,61.20
2022-08-09T08:06:31.579Z,60.90
2022-08-09T08:09:04.441Z,59.60
2022-08-09T08:12:11.615Z,59.60
2022-08-09T08:14:21.215Z,58.40
2022-08-09T08:17:07.609Z,58.70
2022-08-09T08:19:35.254Z,57.30
2022-08-09T08:22:03.111Z,57.10
2022-08-09T08:24:40.093Z,55.60
2022-08-09T08:27:16.723Z,55.90
2022-08-09T08:29:48.473Z,54.80
2022-08-09T08:32:18.911Z,54.70
2022-08-09T08:34:51.906Z,54.80
2022-08-09T08:37:18.974Z,52.90
2022-08-09T08:39:47.125Z,52.90
2022-08-09T08:42:14.184Z,52.80
2022-08-09T08:44:44.003Z,50.30
2022-08-09T08:47:16.638Z,50.60
2022-08-09T08:49:48.566Z,49.20
2022-08-09T08:52:53.084Z,49.50
2022-08-09T08:55:05.572Z,48.90
2022-08-09T08:57:35.454Z,47.90
2022-08-09T09:00:07.967Z,46.90
2022-08-09T09:02:52.975Z,47.50
2022-08-09T09:05:33.133Z,46.50
2022-08-09T09:08:30.048Z,45.70
2022-08-09T09:11:04.011Z,44.40
2022-08-09T09:13:47.266Z,45.00
2022-08-09T09:16:30.274Z,44.40
2022-08-09T09:19:37.093Z,43.40
2022-08-09T09:22:03.691Z,43.40
2022-08-09T09:24:34.876Z,42.50
2022-08-09T09:27:03.008Z,42.00
2022-08-09T09:30:14.261Z,42.00
2022-08-09T09:32:34.643Z,40.90
2022-08-09T09:35:10.834Z,40.60
2022-08-09T09:37:45.583Z,39.60
2022-08-09T09:40:13.092Z,39.10
2022-08-09T09:42:43.073Z,38.80
2022-08-09T09:45:14.497Z,38.80
2022-08-09T09:47:58.354Z,38.60
2022-08-09T09:50:50.882Z,38.50
2022-08-09T09:53:52.004Z,37.50
2022-08-09T09:56:20.012Z,37.70
2022-08-09T09:58:58.419Z,38.00
2022-08-09T10:01:31.205Z,36.40
2022-08-09T10:04:22.825Z,36.50
2022-08-09T10:06:57.647Z,36.00
2022-08-09T10:09:25.872Z,35.30
2022-08-09T10:12:43.627Z,35.60
2022-08-09T10:15:17.173Z,34.60
2022-08-09T10:17:55.691Z,33.80
2022-08-09T10:20:32.384Z,34.70
2022-08-09T10:23:17.287Z,34.30
2022-08-09T10:26:07.338Z,32.60
2022-08-09T10:28:35.157Z,32.50
2022-08-09T10:34:08.657Z,32.00
2022-08-09T10:36:40.039Z,32.30
2022-08-09T10:39:15.457Z,33.00
2022-08-09T10:41:47.716Z,33.20
2022-08-09T10:44:21.652Z,33.30
2022-08-09T10:48:13.433Z,31.00
2022-08-09T10:50:32.711Z,29.90
2022-08-09T10:53:19.444Z,30.10
2022-08-09T10:55:55.176Z,31.00
2022-08-09T10:58:37.374Z,31.40
2022-08-09T11:03:02.530Z,30.10
2022-08-09T11:04:30.118Z,30.00
2022-08-09T11:06:59.967Z,29.60
2022-08-09T11:09:41.442Z,29.70
2022-08-09T11:12:17.116Z,29.30
2022-08-09T11:14:55.905Z,29.40
2022-08-09T11:17:27.250Z,29.00
2022-08-09T11:20:20.040Z,29.10
2022-08-09T11:22:56.874Z,28.90
2022-08-09T11:25:36.241Z,28.90
2022-08-09T11:28:34.545Z,28.40
2022-08-09T11:31:48.858Z,29.20
2022-08-09T11:34:48.977Z,29.20
2022-08-09T11:37:31.336Z,29.00
2022-08-09T11:40:11.399Z,29.00
2022-08-09T11:42:52.737Z,29.10
2022-08-09T11:45:42.196Z,29.20
2022-08-09T11:48:26.251Z,29.00
2022-08-09T11:52:48.718Z,29.30
2022-08-09T11:53:59.696Z,29.10
2022-08-09T11:56:41.469Z,29.00
2022-08-09T11:59:11.713Z,29.10
2022-08-09T12:02:16.860Z,29.20
2022-08-09T12:04:37.131Z,28.90
2022-08-09T12:07:07.718Z,28.80
2022-08-09T12:09:36.240Z,28.80
2022-08-09T12:12:13.065Z,28.90
2022-08-09T12:15:08.317Z,28.40
2022-08-09T12:17:44.342Z,28.00
2022-08-09T12:20:21.759Z,28.50
2022-08-09T12:23:00.070Z,28.30
2022-08-09T12:25:36.816Z,28.20
2022-08-09T12:29:15.118Z,28.20
2022-08-09T12:31:58.009Z,28.10
2022-08-09T12:34:17.186Z,28.00
2022-08-09T12:36:58.936Z,28.10
2022-08-09T12:39:37.835Z,27.80
2022-08-09T12:42:16.929Z,28.00
2022-08-09T12:44:46.360Z,27.70
2022-08-09T12:47:13.648Z,27.90
2022-08-09T12:50:09.869Z,28.40
2022-08-09T12:53:17.593Z,28.10
2022-08-09T12:56:14.938Z,28.10
2022-08-09T12:58:24.256Z,28.00
2022-08-09T13:00:54.552Z,28.60
2022-08-09T13:03:53.642Z,27.60
2022-08-09T13:06:35.715Z,27.80
2022-08-09T13:09:15.529Z,27.90
2022-08-09T13:11:48.249Z,27.80
2022-08-09T13:14:42.452Z,27.80
2022-08-09T13:17:13.607Z,27.60
2022-08-09T13:20:08.938Z,27.50
2022-08-09T13:23:02.134Z,27.50
2022-08-09T13:25:23.129Z,27.40
2022-08-09T13:27:55.651Z,27.30
2022-08-09T13:30:51.348Z,27.20
2022-08-09T13:33:22.440Z,27.10
2022-08-09T13:36:37.916Z,27.30
2022-08-09T13:38:57.410Z,27.10
2022-08-09T13:41:58.575Z,27.00
2022-08-09T13:44:16.268Z,27.10
2022-08-09T13:47:29.093Z,27.20
2022-08-09T13:49:37.609Z,27.20
2022-08-09T13:52:09.404Z,27.20
2022-08-09T13:54:41.924Z,27.20
2022-08-09T13:57:14.525Z,27.40
2022-08-09T13:59:58.213Z,27.50
2022-08-09T14:02:26.274Z,27.80
2022-08-09T14:05:00.182Z,27.90
2022-08-09T14:07:40.901Z,27.70
2022-08-09T14:10:17.009Z,27.70
2022-08-09T14:12:44.763Z,27.80
2022-08-09T14:16:06.999Z,27.70
2022-08-09T14:18:19.321Z,27.80
2022-08-09T14:20:46.221Z,27.60
2022-08-09T14:23:20.094Z,27.50
2022-08-09T14:25:52.120Z,27.70
2022-08-09T14:28:19.588Z,28.00
2022-08-09T14:30:48.238Z,28.30
2022-08-09T14:33:20.945Z,28.70
2022-08-09T14:35:52.132Z,28.70
2022-08-09T14:38:20.018Z,28.80
2022-08-09T14:41:02.055Z,29.00
2022-08-09T14:43:47.339Z,29.20
2022-08-09T14:46:46.641Z,29.50
2022-08-09T14:49:03.042Z,29.90
2022-08-09T14:51:30.604Z,30.20
2022-08-09T14:54:09.668Z,30.50
2022-08-09T14:56:53.669Z,30.80
2022-08-09T14:59:23.904Z,31.10
2022-08-09T15:01:50.790Z,31.40
2022-08-09T15:04:18.636Z,31.30
2022-08-09T15:06:49.723Z,31.60
2022-08-09T15:10:03.556Z,32.00
2022-08-09T15:12:05.182Z,32.40
2022-08-09T15:14:38.350Z,32.60
2022-08-09T15:17:09.351Z,32.60
2022-08-09T15:19:37.038Z,32.70
2022-08-09T15:22:25.888Z,33.00
2022-08-09T15:24:53.902Z,32.70
2022-08-09T15:27:21.913Z,32.90
2022-08-09T15:30:58.280Z,33.70
2022-08-09T15:32:36.271Z,33.40
2022-08-09T15:35:18.137Z,33.70
2022-08-09T15:37:56.225Z,33.80
2022-08-09T15:40:37.207Z,33.90
2022-08-09T15:43:13.629Z,33.80
2022-08-09T15:46:07.824Z,33.80
2022-08-09T15:48:31.751Z,33.80
2022-08-09T15:51:02.524Z,33.80
2022-08-09T15:54:03.756Z,33.70
2022-08-09T15:56:36.283Z,33.50
2022-08-09T15:59:03.204Z,33.70
2022-08-09T16:01:35.407Z,33.70
2022-08-09T16:04:03.181Z,33.80
2022-08-09T16:06:35.448Z,33.90
2022-08-09T16:09:07.281Z,34.20
2022-08-09T16:11:34.394Z,34.60
2022-08-09T16:14:06.870Z,34.70
2022-08-09T16:16:41.994Z,34.50
2022-08-09T16:19:13.529Z,34.50
2022-08-09T16:21:41.595Z,34.50
2022-08-09T16:24:30.208Z,34.30
2022-08-09T16:27:00.272Z,34.20
2022-08-09T16:29:37.763Z,34.20
2022-08-09T16:32:33.663Z,34.20
2022-08-09T16:35:02.329Z,34.20
2022-08-09T16:37:54.810Z,34.10
2022-08-09T16:40:20.440Z,34.40
2022-08-09T16:42:56.689Z,34.30
2022-08-09T16:45:23.602Z,34.10
2022-08-09T16:48:43.281Z,34.10
2022-08-09T16:50:41.939Z,34.40
2022-08-09T16:53:26.770Z,34.30
2022-08-09T16:56:05.988Z,34.10
2022-08-09T16:58:39.814Z,34.10
2022-08-09T17:01:10.074Z,33.90
2022-08-09T17:03:37.666Z,34.40
2022-08-09T17:06:28.297Z,34.30
2022-08-09T17:09:01.645Z,34.40
2022-08-09T17:11:41.916Z,34.00
2022-08-09T17:14:25.701Z,34.40
2022-08-09T17:16:59.954Z,34.10
2022-08-09T17:19:46.393Z,34.00
2022-08-09T17:22:24.760Z,34.40
2022-08-09T17:25:02.714Z,34.20
2022-08-09T17:27:32.113Z,34.10
2022-08-09T17:29:58.980Z,34.40
2022-08-09T17:32:34.710Z,34.40
2022-08-09T17:35:10.702Z,34.70
2022-08-09T17:38:11.282Z,35.00
2022-08-09T17:40:32.128Z,34.90
2022-08-09T17:43:03.295Z,34.70
2022-08-09T17:46:02.803Z,34.60
2022-08-09T17:48:29.320Z,34.70
2022-08-09T17:51:06.519Z,34.60
2022-08-09T17:53:48.087Z,35.00
2022-08-09T17:56:26.827Z,35.30
2022-08-09T17:58:59.766Z,35.50
2022-08-09T18:02:03.572Z,35.60
2022-08-09T18:04:15.214Z,35.80
2022-08-09T18:06:49.740Z,35.90
2022-08-09T18:09:22.783Z,35.90
2022-08-09T18:12:14.470Z,36.20
2022-08-09T18:14:42.182Z,36.40
2022-08-09T18:17:18.943Z,36.50
2022-08-09T18:20:59.656Z,36.50
2022-08-09T18:22:52.228Z,36.60
2022-08-09T18:25:19.635Z,36.80
2022-08-09T18:28:02.915Z,37.00
2022-08-09T18:30:41.445Z,37.20
2022-08-09T18:33:16.457Z,37.60
2022-08-09T18:35:59.556Z,37.30
2022-08-09T18:38:27.595Z,37.70
2022-08-09T18:40:55.753Z,37.60
2022-08-09T18:43:23.384Z,38.10
2022-08-09T18:46:49.154Z,38.30
2022-08-09T18:48:37.342Z,38.50
2022-08-09T18:51:04.683Z,38.60
2022-08-09T18:53:55.885Z,38.90
2022-08-09T18:56:27.824Z,39.10
2022-08-09T18:58:56.513Z,39.30
2022-08-09T19:01:24.566Z,39.50
2022-08-09T19:03:54.527Z,39.80
2022-08-09T19:06:28.795Z,40.10
2022-08-09T19:09:02.838Z,40.30
2022-08-09T19:11:37.802Z,40.70
2022-08-09T19:14:08.760Z,41.20
2022-08-09T19:16:36.727Z,41.40
2022-08-09T19:19:23.750Z,41.70
2022-08-09T19:22:06.772Z,42.10
2022-08-09T19:24:38.655Z,42.40
2022-08-09T19:27:21.947Z,43.00
2022-08-09T19:30:23.280Z,43.60
2022-08-09T19:32:36.594Z,43.50
2022-08-09T19:35:04.431Z,43.80
2022-08-09T19:37:41.192Z,44.10
2022-08-09T19:40:19.532Z,44.30
2022-08-09T19:42:47.447Z,44.70
2022-08-09T19:45:16.699Z,44.90
2022-08-09T19:47:44.731Z,44.90
2022-08-09T19:50:50.965Z,45.50
2022-08-09T19:52:59.873Z,46.00
2022-08-09T19:56:02.382Z,45.70
2022-08-09T19:58:29.754Z,46.10
2022-08-09T20:00:57.671Z,45.90
2022-08-09T20:04:10.450Z,46.00
2022-08-09T20:06:22.382Z,46.20
2022-08-09T20:08:56.940Z,46.50
2022-08-09T20:11:26.238Z,47.10
2022-08-09T20:13:54.840Z,47.00
2022-08-09T20:16:35.460Z,47.30
2022-08-09T20:19:47.669Z,47.80
2022-08-09T20:21:56.225Z,47.90
2022-08-09T20:24:32.095Z,47.30
2022-08-09T20:27:01.875Z,47.20
2022-08-09T20:29:37.090Z,47.10
2022-08-09T20:32:31.395Z,47.30
2022-08-09T20:34:57.453Z,47.40
2022-08-09T20:37:24.857Z,47.10
2022-08-09T20:40:15.999Z,46.90
2022-08-09T20:42:38.652Z,46.90
2022-08-09T20:46:01.406Z,46.90
2022-08-09T20:47:55.127Z,47.00
2022-08-09T20:50:47.036Z,47.10
2022-08-09T20:53:22.778Z,47.20
2022-08-09T20:56:01.982Z,47.20
2022-08-09T20:58:32.901Z,47.40
2022-08-09T21:01:32.628Z,47.60
2022-08-09T21:05:48.343Z,47.60
2022-08-09T21:06:42.743Z,47.80
2022-08-09T21:09:13.890Z,47.90
2022-08-09T21:14:31.152Z,48.00
2022-08-09T21:16:59.425Z,48.20
2022-08-09T21:20:18.481Z,48.40
2022-08-09T21:22:35.700Z,48.40
2022-08-09T21:25:20.778Z,48.60
2022-08-09T21:27:52.343Z,48.70
2022-08-09T21:30:22.166Z,48.80
2022-08-09T21:32:49.995Z,48.90
2022-08-09T21:35:17.388Z,48.90
2022-08-09T21:37:56.843Z,49.10
2022-08-09T21:40:30.184Z,49.20
2022-08-09T21:42:59.702Z,49.30
2022-08-09T21:45:28.279Z,49.40
2022-08-09T21:47:55.612Z,49.50
2022-08-09T21:50:33.902Z,49.80
2022-08-09T21:53:19.987Z,49.80
2022-08-09T21:55:54.130Z,49.80
2022-08-09T21:58:21.172Z,50.00
2022-08-09T22:00:57.991Z,49.90
2022-08-09T22:03:25.875Z,50.10
2022-08-09T22:05:54.101Z,50.00
2022-08-09T22:08:22.937Z,50.00
2022-08-09T22:11:50.563Z,50.20
2022-08-09T22:13:43.226Z,50.30
2022-08-09T22:16:11.623Z,50.40
2022-08-09T22:18:44.003Z,50.60
2022-08-09T22:21:22.307Z,50.60
2022-08-09T22:24:01.516Z,50.50
2022-08-09T22:26:35.235Z,50.80
2022-08-09T22:29:08.991Z,50.90
2022-08-09T22:31:38.217Z,51.00
2022-08-09T22:34:14.760Z,51.10
2022-08-09T22:36:46.347Z,51.30
2022-08-09T22:39:46.873Z,51.50
2022-08-09T22:42:03.027Z,51.70
2022-08-09T22:44:32.808Z,52.00
2022-08-09T22:48:15.099Z,52.20
2022-08-09T22:49:51.904Z,52.40
2022-08-09T22:52:19.784Z,52.60
2022-08-09T22:54:47.751Z,52.70
2022-08-09T22:57:15.303Z,52.90
2022-08-09T22:59:58.224Z,53.20
2022-08-09T23:02:27.172Z,53.30
2022-08-09T23:04:54.847Z,53.40
2022-08-09T23:08:27.462Z,53.50
2022-08-09T23:10:31.559Z,53.40
2022-08-09T23:12:59.568Z,53.40
2022-08-09T23:15:27.735Z,53.40
2022-08-09T23:17:55.073Z,53.50
2022-08-09T23:20:22.753Z,53.60
2022-08-09T23:22:49.743Z,53.60
2022-08-09T23:25:16.674Z,53.60
2022-08-09T23:28:01.880Z,53.60
2022-08-09T23:30:30.898Z,53.60
2022-08-09T23:32:57.776Z,53.70
2022-08-09T23:35:24.799Z,53.80
2022-08-09T23:37:51.780Z,53.80
2022-08-09T23:40:18.800Z,53.90
2022-08-09T23:42:45.664Z,54.00
2022-08-09T23:45:36.538Z,54.00
2022-08-09T23:47:59.560Z,54.20
2022-08-09T23:50:26.728Z,54.30
2022-08-09T23:52:53.986Z,54.40
2022-08-09T23:55:21.401Z,54.50
2022-08-09T23:58:07.833Z,54.70
